Meyer, Iowa
Current Conditions -  °F | °C
As of 7:16 PM on Saturday 22 Nov 2014 (Local Time) from KAUM Reporting Station
Haze Haze  
Wind Chill: 31°   Ceiling: Unl
Heat Index: 37°   Visibility: 4mi
Dew Point: 37°   Wind: 9mph
Humidity: 100%   Direction: 160°SSE
Pressure: 29.62"   Gusts: NA
Location:  43.4645°N, 92.6131°W
Report Text: KAUM 230116Z AUTO 16008KT 4SM BR SCT002 SCT006 03/03 A2962 RMK AO2
Loading
Personal Weather Stations






























Interactive Weather Map New forecast layout! Learn more

10-Day Weather Forecast

Advertisements
Track Severe Weather on mobile